createdAt,value
2022-09-20T03:02:08.588Z,12.20
2022-09-20T03:05:06.104Z,12.80
2022-09-20T03:07:55.425Z,15.27
2022-09-20T03:10:29.015Z,34.43
2022-09-20T03:13:10.451Z,24.07
2022-09-20T03:15:52.865Z,4.20
2022-09-20T03:18:33.764Z,3.80
2022-09-20T03:21:47.133Z,3.57
2022-09-20T03:24:52.467Z,3.50
2022-09-20T03:27:28.074Z,3.37
2022-09-20T03:30:27.743Z,3.60
2022-09-20T03:33:07.295Z,3.80
2022-09-20T03:35:45.666Z,3.63
2022-09-20T03:38:21.264Z,3.53
2022-09-20T03:41:06.511Z,3.43
2022-09-20T03:44:09.009Z,3.67
2022-09-20T03:46:46.666Z,3.43
2022-09-20T03:49:41.936Z,3.90
2022-09-20T03:52:35.553Z,4.23
2022-09-20T03:55:20.529Z,4.07
2022-09-20T03:58:19.023Z,4.27
2022-09-20T04:00:57.769Z,4.67
2022-09-20T04:03:55.464Z,5.97
2022-09-20T04:06:47.845Z,4.40
2022-09-20T04:09:45.978Z,3.83
2022-09-20T04:12:22.867Z,4.00
2022-09-20T04:15:17.643Z,4.07
2022-09-20T04:18:09.613Z,3.93
2022-09-20T04:20:50.332Z,3.70
2022-09-20T04:23:54.014Z,4.03
2022-09-20T04:26:27.120Z,4.23
2022-09-20T04:29:20.912Z,4.33
2022-09-20T04:32:04.537Z,4.03
2022-09-20T04:34:57.201Z,4.40
2022-09-20T04:37:27.181Z,4.30
2022-09-20T04:40:05.446Z,3.80
2022-09-20T04:42:38.151Z,4.13
2022-09-20T04:45:30.522Z,4.57
2022-09-20T04:48:26.556Z,4.10
2022-09-20T04:51:36.345Z,3.63
2022-09-20T04:54:12.291Z,3.90
2022-09-20T04:57:15.876Z,4.70
2022-09-20T05:00:24.059Z,4.63
2022-09-20T05:03:12.503Z,4.13
2022-09-20T05:06:14.388Z,4.50
2022-09-20T05:08:50.228Z,4.87
2022-09-20T05:11:47.190Z,4.40
2022-09-20T05:14:24.889Z,4.27
2022-09-20T05:17:03.825Z,4.20
2022-09-20T05:19:45.384Z,4.17
2022-09-20T05:22:51.943Z,5.23
2022-09-20T05:25:33.588Z,4.10
2022-09-20T05:28:28.050Z,4.87
2022-09-20T05:31:17.633Z,4.87
2022-09-20T05:34:18.042Z,4.80
2022-09-20T05:37:22.490Z,6.23
2022-09-20T05:40:21.777Z,4.50
2022-09-20T05:43:20.822Z,4.67
2022-09-20T05:46:24.799Z,4.90
2022-09-20T05:48:58.099Z,5.27
2022-09-20T05:51:33.898Z,5.07
2022-09-20T05:54:00.978Z,6.53
2022-09-20T05:56:49.499Z,5.20
2022-09-20T05:59:51.402Z,6.10
2022-09-20T06:02:55.658Z,5.90
2022-09-20T06:06:00.148Z,5.30
2022-09-20T06:08:27.248Z,5.70
2022-09-20T06:11:32.506Z,4.90
2022-09-20T06:14:30.188Z,5.10
2022-09-20T06:17:19.001Z,5.10
2022-09-20T06:20:17.080Z,6.10
2022-09-20T06:22:49.794Z,5.43
2022-09-20T06:25:26.101Z,5.47
2022-09-20T06:28:07.417Z,4.83
2022-09-20T06:30:41.432Z,4.43
2022-09-20T06:33:22.284Z,4.20
2022-09-20T06:35:58.285Z,4.97
2022-09-20T06:39:38.597Z,4.00
2022-09-20T06:42:06.566Z,3.72
2022-09-20T06:44:33.739Z,4.95
2022-09-20T06:47:01.737Z,7.55
2022-09-20T06:49:29.177Z,4.00
2022-09-20T06:51:57.383Z,3.70
2022-09-20T06:54:27.110Z,4.65
2022-09-20T06:56:55.290Z,3.17
2022-09-20T06:59:22.688Z,3.58
2022-09-20T07:01:49.901Z,2.67
2022-09-20T07:04:17.190Z,2.40
2022-09-20T07:06:44.379Z,2.45
2022-09-20T07:09:12.460Z,3.60
2022-09-20T07:11:39.602Z,2.58
2022-09-20T07:14:08.007Z,2.40
2022-09-20T07:16:36.231Z,2.53
2022-09-20T07:19:05.947Z,3.22
2022-09-20T07:21:33.148Z,3.03
2022-09-20T07:24:01.901Z,2.33
2022-09-20T07:26:30.976Z,4.80
2022-09-20T07:28:59.460Z,2.20
2022-09-20T07:31:29.451Z,3.33
2022-09-20T07:33:56.749Z,3.75
2022-09-20T07:36:24.120Z,2.47
2022-09-20T07:38:53.101Z,5.35
2022-09-20T07:41:21.714Z,2.90
2022-09-20T07:43:50.697Z,1.95
2022-09-20T07:46:23.076Z,3.58
2022-09-20T07:48:50.315Z,1.85
2022-09-20T07:51:17.516Z,2.47
2022-09-20T07:53:44.685Z,3.03
2022-09-20T07:56:14.635Z,4.82
2022-09-20T07:58:43.232Z,2.78
2022-09-20T08:01:13.363Z,2.17
2022-09-20T08:03:40.669Z,5.28
2022-09-20T08:06:10.313Z,4.78
2022-09-20T08:08:40.583Z,2.75
2022-09-20T08:11:16.117Z,5.47
2022-09-20T08:16:41.909Z,4.20
2022-09-20T08:19:13.796Z,4.32
2022-09-20T08:21:41.081Z,2.22
2022-09-20T08:24:08.225Z,2.83
2022-09-20T08:26:35.944Z,5.38
2022-09-20T08:29:05.956Z,3.60
2022-09-20T08:31:36.864Z,5.38
2022-09-20T08:34:09.560Z,4.25
2022-09-20T08:36:41.254Z,2.95
2022-09-20T08:42:09.489Z,2.58
2022-09-20T08:45:01.420Z,2.85
2022-09-20T08:47:34.333Z,3.20
2022-09-20T08:50:17.605Z,4.90
2022-09-20T08:52:48.473Z,3.85
2022-09-20T08:55:25.791Z,5.28
2022-09-20T08:57:55.432Z,2.33
2022-09-20T09:00:31.876Z,4.40
2022-09-20T09:03:05.168Z,3.58
2022-09-20T09:05:38.931Z,2.90
2022-09-20T09:08:25.365Z,3.70
2022-09-20T09:10:56.306Z,2.17
2022-09-20T09:13:58.300Z,3.33
2022-09-20T09:16:35.089Z,20.00
2022-09-20T09:19:45.656Z,21.02
2022-09-20T09:22:22.599Z,12.15
2022-09-20T09:25:12.756Z,11.07
2022-09-20T09:27:58.852Z,9.77
2022-09-20T09:30:33.841Z,14.52
2022-09-20T09:33:30.321Z,11.88
2022-09-20T09:36:13.940Z,13.07
2022-09-20T09:38:45.345Z,10.18
2022-09-20T09:41:18.207Z,10.18
2022-09-20T09:44:09.892Z,17.65
2022-09-20T09:46:43.026Z,9.63
2022-09-20T09:49:19.856Z,14.05
2022-09-20T09:52:01.605Z,14.05
2022-09-20T09:54:36.379Z,17.65
2022-09-20T09:57:07.012Z,17.73
2022-09-20T10:00:22.849Z,19.75
2022-09-20T10:03:21.038Z,15.75
2022-09-20T10:06:07.431Z,17.85
2022-09-20T10:08:37.353Z,9.00
2022-09-20T10:11:04.450Z,19.75
2022-09-20T10:13:42.885Z,19.80
2022-09-20T10:16:46.831Z,14.98
2022-09-20T10:19:26.318Z,16.70
2022-09-20T10:22:05.547Z,14.38
2022-09-20T10:25:10.596Z,26.85
2022-09-20T10:27:57.878Z,13.57
2022-09-20T10:30:33.451Z,14.48
2022-09-20T10:33:31.491Z,19.48
2022-09-20T10:36:16.968Z,15.75
2022-09-20T10:38:59.175Z,7.60
2022-09-20T10:42:06.006Z,13.18
2022-09-20T10:44:47.877Z,10.57
2022-09-20T10:47:21.436Z,15.75
2022-09-20T10:50:09.944Z,11.60
2022-09-20T10:52:57.964Z,9.77
2022-09-20T10:55:47.274Z,16.27
2022-09-20T10:58:35.167Z,8.52
2022-09-20T11:01:20.898Z,11.05
2022-09-20T11:04:09.568Z,13.93
2022-09-20T11:06:39.690Z,19.45
2022-09-20T11:09:13.986Z,17.52
2022-09-20T11:11:49.298Z,9.85
2022-09-20T11:14:23.164Z,8.48
2022-09-20T11:16:56.810Z,7.88
2022-09-20T11:19:48.469Z,15.30
2022-09-20T11:22:23.973Z,10.65
2022-09-20T11:25:03.262Z,10.82
2022-09-20T11:27:33.622Z,11.27
2022-09-20T11:30:14.925Z,14.02
2022-09-20T11:32:49.747Z,2.90
2022-09-20T11:35:33.312Z,9.15
2022-09-20T11:38:25.915Z,12.95
2022-09-20T11:41:09.313Z,11.73
2022-09-20T11:43:38.822Z,7.75
2022-09-20T11:46:10.589Z,12.65
2022-09-20T11:48:49.758Z,9.05
2022-09-20T11:51:34.270Z,11.13
2022-09-20T11:54:28.156Z,11.18
2022-09-20T11:56:57.391Z,12.77
2022-09-20T11:59:31.571Z,15.90
2022-09-20T12:02:02.847Z,12.00
2022-09-20T12:04:36.004Z,8.30
2022-09-20T12:07:18.916Z,10.07
2022-09-20T12:10:23.289Z,16.77
2022-09-20T12:13:05.769Z,13.45
2022-09-20T12:15:34.778Z,17.58
2022-09-20T12:18:09.370Z,19.20
2022-09-20T12:20:39.778Z,16.75
2022-09-20T12:23:41.212Z,12.95
2022-09-20T12:26:18.798Z,13.05
2022-09-20T12:29:05.088Z,9.38
2022-09-20T12:31:32.353Z,13.70
2022-09-20T12:34:10.418Z,14.38
2022-09-20T12:36:52.154Z,15.68
2022-09-20T12:39:30.083Z,14.55
2022-09-20T12:42:12.533Z,9.27
2022-09-20T12:45:00.225Z,11.10
2022-09-20T12:47:36.622Z,3.92
2022-09-20T12:50:32.348Z,10.32
2022-09-20T12:53:06.283Z,3.50
2022-09-20T12:55:50.265Z,13.90
2022-09-20T12:58:25.181Z,13.82
2022-09-20T13:01:00.921Z,10.85
2022-09-20T13:03:37.077Z,13.10
2022-09-20T13:06:07.160Z,10.40
2022-09-20T13:08:51.738Z,11.13
2022-09-20T13:11:27.385Z,10.25
2022-09-20T13:14:03.099Z,9.40
2022-09-20T13:16:52.887Z,6.55
2022-09-20T13:19:32.536Z,14.43
2022-09-20T13:22:22.912Z,12.98
2022-09-20T13:24:56.252Z,10.30
2022-09-20T13:27:34.496Z,7.90
2022-09-20T13:30:21.896Z,4.03
2022-09-20T13:32:50.516Z,8.23
2022-09-20T13:35:20.469Z,9.00
2022-09-20T13:37:51.045Z,9.95
2022-09-20T13:40:33.260Z,11.23
2022-09-20T13:43:22.706Z,10.65
2022-09-20T13:45:58.057Z,10.93
2022-09-20T13:48:30.038Z,9.98
2022-09-20T13:50:57.906Z,6.72
2022-09-20T13:53:42.788Z,10.50
2022-09-20T13:56:18.331Z,10.93
2022-09-20T13:58:45.688Z,10.25
2022-09-20T14:01:34.558Z,13.45
2022-09-20T14:04:14.622Z,14.93
2022-09-20T14:06:42.505Z,16.27
2022-09-20T14:09:33.967Z,12.70
2022-09-20T14:12:03.173Z,13.95
2022-09-20T14:14:33.304Z,13.30
2022-09-20T14:17:02.040Z,12.27
2022-09-20T14:19:32.561Z,13.23
2022-09-20T14:22:04.057Z,8.90
2022-09-20T14:24:35.298Z,8.50
2022-09-20T14:27:22.357Z,13.18
2022-09-20T14:29:54.763Z,10.90
2022-09-20T14:32:27.605Z,12.15
2022-09-20T14:35:06.334Z,13.07
2022-09-20T14:37:47.132Z,17.67
2022-09-20T14:40:25.888Z,7.30
2022-09-20T14:42:56.276Z,10.35
2022-09-20T14:45:39.393Z,15.00
2022-09-20T14:48:26.478Z,13.20
2022-09-20T14:51:18.011Z,11.88
2022-09-20T14:53:47.143Z,8.93
2022-09-20T14:56:32.842Z,17.40
2022-09-20T14:59:13.828Z,12.32
2022-09-20T15:01:56.696Z,13.13
2022-09-20T15:04:27.694Z,13.07
2022-09-20T15:06:56.999Z,17.33
2022-09-20T15:09:24.358Z,17.48
2022-09-20T15:12:07.738Z,17.38
2022-09-20T15:14:37.828Z,38.92
2022-09-20T15:17:06.158Z,20.25
2022-09-20T15:19:34.401Z,13.07
2022-09-20T15:22:01.790Z,12.00
2022-09-20T15:24:29.046Z,10.48
2022-09-20T15:26:56.205Z,6.55
2022-09-20T15:29:23.348Z,6.63
2022-09-20T15:31:50.606Z,9.88
2022-09-20T15:34:18.815Z,13.68
2022-09-20T15:36:46.123Z,17.95
2022-09-20T15:39:14.840Z,15.82
2022-09-20T15:41:43.811Z,19.73
2022-09-20T15:44:11.260Z,17.55
2022-09-20T15:46:38.444Z,14.13
2022-09-20T15:49:06.667Z,12.45
2022-09-20T15:51:34.167Z,12.02
2022-09-20T15:54:06.154Z,12.82
2022-09-20T15:56:37.314Z,11.95
2022-09-20T15:59:06.600Z,15.38
2022-09-20T16:01:39.727Z,14.13
2022-09-20T16:04:15.574Z,17.20
2022-09-20T16:06:46.210Z,12.07
2022-09-20T16:09:13.842Z,11.85
2022-09-20T16:11:41.047Z,13.43
2022-09-20T16:14:08.229Z,14.00
2022-09-20T16:16:40.155Z,11.98
2022-09-20T16:19:22.223Z,14.43
2022-09-20T16:21:59.326Z,14.98
2022-09-20T16:24:31.845Z,10.70
2022-09-20T16:27:01.245Z,18.15
2022-09-20T16:29:29.989Z,10.25
2022-09-20T16:31:58.537Z,11.20
2022-09-20T16:34:31.456Z,16.23
2022-09-20T16:37:04.159Z,14.32
2022-09-20T16:39:31.772Z,21.40
2022-09-20T16:42:04.785Z,23.67
2022-09-20T16:44:34.276Z,18.05
2022-09-20T16:47:02.099Z,18.15
2022-09-20T16:49:29.820Z,11.55
2022-09-20T16:51:57.075Z,13.32
2022-09-20T16:54:27.373Z,13.27
2022-09-20T16:56:57.033Z,16.48
2022-09-20T16:59:24.159Z,12.07
2022-09-20T17:01:51.701Z,11.95
2022-09-20T17:04:20.152Z,14.30
2022-09-20T17:06:48.396Z,14.35
2022-09-20T17:09:16.497Z,17.08
2022-09-20T17:11:47.066Z,21.52
2022-09-20T17:14:16.877Z,18.08
2022-09-20T17:16:47.769Z,18.35
2022-09-20T17:19:18.364Z,14.57
2022-09-20T17:21:50.197Z,12.15
2022-09-20T17:24:19.912Z,10.23
2022-09-20T17:26:48.610Z,13.43
2022-09-20T17:29:17.471Z,10.75
2022-09-20T17:31:53.171Z,16.90
2022-09-20T17:34:22.296Z,11.32
2022-09-20T17:36:50.760Z,11.15
2022-09-20T17:39:18.715Z,12.93
2022-09-20T17:41:49.532Z,11.98
2022-09-20T17:44:16.972Z,13.63
2022-09-20T17:46:46.244Z,35.20
2022-09-20T17:49:19.479Z,17.65
2022-09-20T17:51:49.165Z,7.43
2022-09-20T17:54:16.514Z,15.38
2022-09-20T17:56:49.260Z,13.45
2022-09-20T17:59:17.966Z,13.32
2022-09-20T18:01:47.199Z,16.48
2022-09-20T18:04:14.650Z,14.02
2022-09-20T18:06:46.141Z,14.45
2022-09-20T18:09:21.478Z,12.80
2022-09-20T18:11:51.416Z,11.57
2022-09-20T18:14:21.016Z,12.50
2022-09-20T18:16:51.379Z,10.07
2022-09-20T18:19:18.797Z,6.00
2022-09-20T18:21:46.006Z,12.05
2022-09-20T18:24:13.171Z,11.25
2022-09-20T18:26:40.614Z,10.70
2022-09-20T18:29:09.485Z,16.90
2022-09-20T18:31:46.549Z,13.25
2022-09-20T18:34:17.816Z,21.90
2022-09-20T18:36:48.368Z,14.88
2022-09-20T18:39:15.566Z,17.23
2022-09-20T18:41:44.719Z,19.42
2022-09-20T18:44:14.944Z,17.00
2022-09-20T18:46:42.418Z,14.98
2022-09-20T18:49:13.577Z,13.05
2022-09-20T18:51:42.161Z,18.05
2022-09-20T18:54:11.011Z,18.30
2022-09-20T18:56:42.702Z,16.33
2022-09-20T18:59:26.741Z,9.98
2022-09-20T19:02:08.456Z,7.37
2022-09-20T19:04:52.564Z,15.27
2022-09-20T19:07:42.495Z,14.53
2022-09-20T19:10:38.051Z,16.05
2022-09-20T19:13:33.018Z,17.15
2022-09-20T19:16:43.683Z,17.87
2022-09-20T19:19:40.909Z,21.73
2022-09-20T19:22:16.242Z,14.45
2022-09-20T19:25:05.162Z,15.30
2022-09-20T19:27:32.662Z,14.70
2022-09-20T19:30:00.046Z,10.88
2022-09-20T19:32:27.838Z,14.43
2022-09-20T19:34:56.540Z,6.53
2022-09-20T19:37:47.719Z,12.82
2022-09-20T19:40:31.269Z,12.27
2022-09-20T19:43:23.629Z,14.30
2022-09-20T19:46:04.058Z,10.45
2022-09-20T19:48:39.850Z,8.70
2022-09-20T19:51:17.045Z,16.75
2022-09-20T19:53:44.473Z,24.40
2022-09-20T19:56:26.613Z,9.53
2022-09-20T19:58:56.010Z,15.65
2022-09-20T20:01:24.989Z,15.00
2022-09-20T20:03:53.904Z,16.70
2022-09-20T20:06:35.669Z,15.60
2022-09-20T20:09:28.817Z,12.23
2022-09-20T20:12:23.737Z,15.25
2022-09-20T20:15:17.843Z,16.92
2022-09-20T20:17:50.506Z,15.13
2022-09-20T20:20:37.853Z,15.75
2022-09-20T20:23:39.605Z,15.70
2022-09-20T20:26:29.324Z,17.90
2022-09-20T20:28:56.458Z,13.30
2022-09-20T20:31:23.597Z,8.13
2022-09-20T20:33:50.829Z,19.93
2022-09-20T20:36:18.237Z,27.08
2022-09-20T20:38:49.723Z,17.33
2022-09-20T20:41:19.433Z,13.43
2022-09-20T20:43:47.372Z,36.13
2022-09-20T20:46:18.688Z,24.50
2022-09-20T20:48:47.770Z,26.20
2022-09-20T20:51:20.434Z,24.13
2022-09-20T20:53:50.677Z,31.17
2022-09-20T20:56:26.459Z,17.27
2022-09-20T20:58:54.198Z,16.95
